createdAt,value
2018-09-29T00:01:10.731Z,3.77
2018-09-29T00:03:38.419Z,3.05
2018-09-29T00:06:06.571Z,3.75
2018-09-29T00:08:34.166Z,3.95
2018-09-29T00:11:01.628Z,3.65
2018-09-29T00:13:29.163Z,3.42
2018-09-29T00:15:56.795Z,2.90
2018-09-29T00:18:24.338Z,3.40
2018-09-29T00:20:51.935Z,3.35
2018-09-29T00:23:19.549Z,3.33
2018-09-29T00:25:46.920Z,3.60
2018-09-29T00:28:14.753Z,2.80
2018-09-29T00:30:42.185Z,3.20
2018-09-29T00:33:14.015Z,2.80
2018-09-29T00:35:42.411Z,3.52
2018-09-29T00:38:09.917Z,3.27
2018-09-29T00:40:37.331Z,2.95
2018-09-29T00:43:05.130Z,3.20
2018-09-29T00:45:32.543Z,2.90
2018-09-29T00:48:00.653Z,3.60
2018-09-29T00:50:28.130Z,3.50
2018-09-29T00:52:55.507Z,3.50
2018-09-29T00:55:23.182Z,2.75
2018-09-29T00:57:54.926Z,2.98
2018-09-29T01:00:22.814Z,3.25
2018-09-29T01:02:50.363Z,3.35
2018-09-29T01:05:17.890Z,2.83
2018-09-29T01:07:46.144Z,2.85
2018-09-29T01:10:13.581Z,3.12
2018-09-29T01:12:41.030Z,3.05
2018-09-29T01:15:08.902Z,3.27
2018-09-29T01:17:40.282Z,2.90
2018-09-29T01:22:44.239Z,2.77
2018-09-29T01:25:11.785Z,2.92
2018-09-29T01:27:39.789Z,3.10
2018-09-29T01:30:07.483Z,2.55
2018-09-29T01:32:36.098Z,2.75
2018-09-29T01:35:04.121Z,2.72
2018-09-29T01:37:32.243Z,2.85
2018-09-29T01:39:59.754Z,2.70
2018-09-29T01:42:27.210Z,2.40
2018-09-29T01:44:54.588Z,2.75
2018-09-29T01:47:22.378Z,2.85
2018-09-29T01:49:49.779Z,3.00
2018-09-29T01:52:17.902Z,3.27
2018-09-29T01:54:45.821Z,2.65
2018-09-29T01:57:13.865Z,3.33
2018-09-29T01:59:41.791Z,2.70
2018-09-29T02:02:09.149Z,3.05
2018-09-29T02:04:37.295Z,3.00
2018-09-29T02:07:04.678Z,3.00
2018-09-29T02:11:59.626Z,2.98
2018-09-29T02:24:16.154Z,3.08
2018-09-29T02:26:43.607Z,2.80
2018-09-29T02:29:11.146Z,3.15
2018-09-29T02:31:38.634Z,2.50
2018-09-29T02:34:06.143Z,2.60
2018-09-29T02:36:33.550Z,3.08
2018-09-29T02:39:01.215Z,2.60
2018-09-29T02:41:29.579Z,2.65
2018-09-29T02:43:57.887Z,2.60
2018-09-29T02:46:26.273Z,3.15
2018-09-29T02:51:20.455Z,2.70
2018-09-29T02:53:47.831Z,3.50
2018-09-29T02:56:15.296Z,2.92
2018-09-29T02:58:43.488Z,2.62
2018-09-29T03:01:10.830Z,2.80
2018-09-29T03:03:50.991Z,2.98
2018-09-29T03:06:18.490Z,3.12
2018-09-29T03:08:48.129Z,3.37
2018-09-29T03:11:15.589Z,3.42
2018-09-29T03:13:42.938Z,2.77
2018-09-29T03:16:10.375Z,2.62
2018-09-29T03:18:37.883Z,2.90
2018-09-29T03:21:05.330Z,3.17
2018-09-29T03:23:33.126Z,3.05
2018-09-29T03:26:00.797Z,3.40
2018-09-29T03:28:28.174Z,2.12
2018-09-29T03:30:55.775Z,3.52
2018-09-29T03:33:23.110Z,3.25
2018-09-29T03:35:50.587Z,2.98
2018-09-29T03:38:17.926Z,2.92
2018-09-29T03:40:45.386Z,2.52
2018-09-29T03:43:12.742Z,3.15
2018-09-29T03:45:40.083Z,3.30
2018-09-29T03:48:08.930Z,3.15
2018-09-29T03:50:40.687Z,2.60
2018-09-29T03:53:08.151Z,3.15
2018-09-29T03:55:37.680Z,2.70
2018-09-29T03:58:05.176Z,3.27
2018-09-29T04:00:32.560Z,2.40
2018-09-29T04:03:00.044Z,2.80
2018-09-29T04:05:31.928Z,3.02
2018-09-29T04:07:59.354Z,2.90
2018-09-29T04:10:26.714Z,3.20
2018-09-29T04:12:54.667Z,3.10
2018-09-29T04:15:22.276Z,3.70
2018-09-29T04:17:49.790Z,2.80
2018-09-29T04:20:21.709Z,3.50
2018-09-29T04:22:53.718Z,3.05
2018-09-29T04:25:21.245Z,3.92
2018-09-29T04:27:48.591Z,2.90
2018-09-29T04:30:16.439Z,3.00
2018-09-29T04:32:43.823Z,2.80
2018-09-29T04:35:11.192Z,3.25
2018-09-29T04:37:38.714Z,3.40
2018-09-29T04:40:06.178Z,2.40
2018-09-29T04:42:34.105Z,3.62
2018-09-29T04:45:02.342Z,3.40
2018-09-29T04:47:29.751Z,2.85
2018-09-29T04:50:01.177Z,3.02
2018-09-29T04:52:28.519Z,2.80
2018-09-29T04:54:56.359Z,2.60
2018-09-29T04:57:23.737Z,3.42
2018-09-29T04:59:51.158Z,2.85
2018-09-29T05:02:19.512Z,2.98
2018-09-29T05:04:51.445Z,2.67
2018-09-29T05:19:49.851Z,3.35
2018-09-29T05:22:18.176Z,3.30
2018-09-29T05:24:46.057Z,3.15
2018-09-29T05:29:42.293Z,3.15
2018-09-29T05:32:10.228Z,3.67
2018-09-29T05:34:37.722Z,3.20
2018-09-29T05:37:05.067Z,3.22
2018-09-29T05:42:05.650Z,3.20
2018-09-29T05:44:34.818Z,3.47
2018-09-29T05:47:02.227Z,3.22
2018-09-29T05:49:33.526Z,3.35
2018-09-29T05:52:01.744Z,3.55
2018-09-29T05:54:29.182Z,3.00
2018-09-29T05:56:56.621Z,2.85
2018-09-29T05:59:24.911Z,3.70
2018-09-29T06:01:52.396Z,3.35
2018-09-29T06:04:19.763Z,3.45
2018-09-29T06:06:47.051Z,4.50
2018-09-29T06:09:14.381Z,3.25
2018-09-29T06:11:41.864Z,3.10
2018-09-29T06:14:09.207Z,3.85
2018-09-29T06:16:36.620Z,3.22
2018-09-29T06:19:03.926Z,3.30
2018-09-29T06:21:31.407Z,3.15
2018-09-29T06:23:58.750Z,3.08
2018-09-29T06:26:26.054Z,3.60
2018-09-29T06:28:53.447Z,3.35
2018-09-29T06:31:20.795Z,3.60
2018-09-29T06:33:48.127Z,2.75
2018-09-29T06:36:15.547Z,3.05
2018-09-29T06:38:43.128Z,3.10
2018-09-29T06:41:10.969Z,3.90
2018-09-29T06:43:38.295Z,3.35
2018-09-29T06:46:05.838Z,3.75
2018-09-29T06:48:34.673Z,3.20
2018-09-29T06:51:02.007Z,3.80
2018-09-29T06:53:29.339Z,4.28
2018-09-29T06:55:56.645Z,4.12
2018-09-29T06:58:24.172Z,4.45
2018-09-29T07:00:51.484Z,4.20
2018-09-29T07:03:18.812Z,3.55
2018-09-29T07:08:13.117Z,3.30
2018-09-29T07:10:40.507Z,2.87
2018-09-29T07:13:07.855Z,4.00
2018-09-29T07:15:35.157Z,4.20
2018-09-29T07:18:02.740Z,4.22
2018-09-29T07:20:30.074Z,2.90
2018-09-29T07:22:57.545Z,3.90
2018-09-29T07:25:24.992Z,3.80
2018-09-29T07:27:52.230Z,4.33
2018-09-29T07:30:19.778Z,3.90
2018-09-29T07:32:47.132Z,3.80
2018-09-29T07:35:14.772Z,4.20
2018-09-29T07:37:43.370Z,3.65
2018-09-29T07:40:10.946Z,3.90
2018-09-29T07:42:38.318Z,4.03
2018-09-29T07:45:05.654Z,3.75
2018-09-29T07:47:33.053Z,4.25
2018-09-29T07:50:00.367Z,3.95
2018-09-29T07:52:32.255Z,4.33
2018-09-29T07:54:59.786Z,3.55
2018-09-29T07:57:27.176Z,3.40
2018-09-29T07:59:54.506Z,3.02
2018-09-29T08:02:21.823Z,3.87
2018-09-29T08:04:49.227Z,4.30
2018-09-29T08:07:17.567Z,3.70
2018-09-29T08:09:45.048Z,4.20
2018-09-29T08:12:12.451Z,3.90
2018-09-29T08:14:39.745Z,3.87
2018-09-29T08:17:07.098Z,3.87
2018-09-29T08:22:07.110Z,4.12
2018-09-29T08:24:34.475Z,3.95
2018-09-29T08:27:01.944Z,4.80
2018-09-29T08:29:29.246Z,4.10
2018-09-29T08:31:56.646Z,3.98
2018-09-29T08:34:23.977Z,4.15
2018-09-29T08:36:51.336Z,4.40
2018-09-29T08:39:19.095Z,4.15
2018-09-29T08:44:13.613Z,5.05
2018-09-29T08:46:46.225Z,3.65
2018-09-29T08:49:13.497Z,3.70
2018-09-29T08:51:40.834Z,4.55
2018-09-29T08:56:39.864Z,3.40
2018-09-29T08:59:08.263Z,3.90
2018-09-29T09:01:37.756Z,3.67
2018-09-29T09:04:05.592Z,3.58
2018-09-29T09:06:33.052Z,3.50
2018-09-29T09:09:00.421Z,3.47
2018-09-29T09:11:27.777Z,3.67
2018-09-29T09:13:55.126Z,3.50
2018-09-29T09:16:22.690Z,2.95
2018-09-29T09:18:50.033Z,3.90
2018-09-29T09:21:17.422Z,3.65
2018-09-29T09:23:44.759Z,3.60
2018-09-29T09:26:12.128Z,4.08
2018-09-29T09:28:39.462Z,3.30
2018-09-29T09:31:07.020Z,2.45
2018-09-29T09:33:34.374Z,1.60
2018-09-29T09:36:01.749Z,2.83
2018-09-29T09:38:29.218Z,3.30
2018-09-29T09:40:56.884Z,2.98
2018-09-29T09:43:25.728Z,2.72
2018-09-29T09:45:53.144Z,3.27
2018-09-29T09:48:20.610Z,3.85
2018-09-29T09:50:48.380Z,2.40
2018-09-29T09:53:15.936Z,2.33
2018-09-29T09:55:43.573Z,2.70
2018-09-29T09:58:10.975Z,2.47
2018-09-29T10:00:44.969Z,2.30
2018-09-29T10:03:17.636Z,2.35
2018-09-29T10:05:50.069Z,3.52
2018-09-29T10:08:17.431Z,3.95
2018-09-29T10:10:45.006Z,2.20
2018-09-29T10:13:12.381Z,2.10
2018-09-29T10:15:39.806Z,2.50
2018-09-29T10:20:39.729Z,2.40
2018-09-29T10:23:07.216Z,2.55
2018-09-29T10:25:36.574Z,1.85
2018-09-29T10:28:04.631Z,2.45
2018-09-29T10:30:38.121Z,2.45
2018-09-29T10:33:05.523Z,2.70
2018-09-29T10:35:33.062Z,2.05
2018-09-29T10:38:00.446Z,2.20
2018-09-29T10:40:28.084Z,2.17
2018-09-29T10:42:55.748Z,2.17
2018-09-29T10:45:23.321Z,2.10
2018-09-29T10:47:50.781Z,1.80
2018-09-29T10:50:30.126Z,2.00
2018-09-29T10:52:57.512Z,1.30
2018-09-29T10:55:24.848Z,1.80
2018-09-29T10:57:52.242Z,3.37
2018-09-29T11:00:20.506Z,1.90
2018-09-29T11:02:48.036Z,2.22
2018-09-29T11:05:15.875Z,2.00
2018-09-29T11:07:43.259Z,2.85
2018-09-29T11:10:10.750Z,1.77
2018-09-29T11:12:38.941Z,1.80
2018-09-29T11:15:07.465Z,1.60
2018-09-29T11:17:38.574Z,1.60
2018-09-29T11:20:08.252Z,1.70
2018-09-29T11:22:37.175Z,1.82
2018-09-29T11:25:04.796Z,2.75
2018-09-29T11:27:32.582Z,2.05
2018-09-29T11:30:00.212Z,1.60
2018-09-29T11:32:32.118Z,2.00
2018-09-29T11:34:59.523Z,1.82
2018-09-29T11:37:26.902Z,1.82
2018-09-29T11:39:54.445Z,2.40
2018-09-29T11:42:22.758Z,1.80
2018-09-29T11:44:50.240Z,1.55
2018-09-29T11:47:17.628Z,1.95
2018-09-29T11:49:45.214Z,1.85
2018-09-29T11:52:13.101Z,1.80
2018-09-29T11:57:24.059Z,2.25
2018-09-29T11:59:51.388Z,2.02
2018-09-29T12:02:18.917Z,1.70
2018-09-29T12:04:46.212Z,2.77
2018-09-29T12:07:13.994Z,2.25
2018-09-29T12:12:19.049Z,1.65
2018-09-29T12:14:57.408Z,2.20
2018-09-29T12:17:24.757Z,1.90
2018-09-29T12:19:52.124Z,1.98
2018-09-29T12:22:19.624Z,2.00
2018-09-29T12:24:47.781Z,2.45
2018-09-29T12:27:15.222Z,2.20
2018-09-29T12:29:42.589Z,3.02
2018-09-29T12:32:09.943Z,2.65
2018-09-29T12:34:37.368Z,2.58
2018-09-29T12:37:04.802Z,2.15
2018-09-29T12:39:32.107Z,2.40
2018-09-29T12:41:59.475Z,2.20
2018-09-29T12:44:34.135Z,2.27
2018-09-29T12:47:03.761Z,1.90
2018-09-29T12:49:31.232Z,3.15
2018-09-29T12:51:58.536Z,2.00
2018-09-29T12:54:26.987Z,2.00
2018-09-29T12:56:54.338Z,2.40
2018-09-29T12:59:21.748Z,2.00
2018-09-29T13:01:49.052Z,1.90
2018-09-29T13:04:17.283Z,2.00
2018-09-29T13:06:44.924Z,1.95
2018-09-29T13:09:12.273Z,2.00
2018-09-29T13:11:45.577Z,1.80
2018-09-29T13:14:12.875Z,2.45
2018-09-29T13:16:40.775Z,1.72
2018-09-29T13:19:08.121Z,1.75
2018-09-29T13:21:35.485Z,1.70
2018-09-29T13:26:30.214Z,1.55
2018-09-29T13:28:57.748Z,1.60
2018-09-29T13:31:25.544Z,1.70
2018-09-29T13:33:52.948Z,1.55
2018-09-29T13:36:21.063Z,2.42
2018-09-29T13:38:49.563Z,2.02
2018-09-29T13:41:17.030Z,2.00
2018-09-29T13:43:45.055Z,1.50
2018-09-29T13:46:12.416Z,1.42
2018-09-29T13:48:39.742Z,1.85
2018-09-29T13:51:08.710Z,1.42
2018-09-29T13:53:36.092Z,1.52
2018-09-29T13:56:04.018Z,1.77
2018-09-29T13:58:32.166Z,1.47
2018-09-29T14:01:00.436Z,1.67
2018-09-29T14:03:27.766Z,2.30
2018-09-29T14:05:56.122Z,1.90
2018-09-29T14:08:27.010Z,2.10
2018-09-29T14:10:54.622Z,1.70
2018-09-29T14:13:22.003Z,1.40
2018-09-29T14:15:54.370Z,1.60
2018-09-29T14:18:21.669Z,1.67
2018-09-29T14:20:49.028Z,1.87
2018-09-29T14:23:16.432Z,2.00
2018-09-29T14:25:43.809Z,2.10
2018-09-29T14:28:11.138Z,1.30
2018-09-29T14:30:38.492Z,1.80
2018-09-29T14:33:06.243Z,1.60
2018-09-29T14:38:00.418Z,1.62
2018-09-29T14:40:27.711Z,1.30
2018-09-29T14:43:01.435Z,1.60
2018-09-29T14:45:28.768Z,1.30
2018-09-29T14:47:56.088Z,1.52
2018-09-29T14:50:29.010Z,1.40
2018-09-29T14:52:56.324Z,1.55
2018-09-29T14:55:23.737Z,1.82
2018-09-29T14:57:51.105Z,1.50
2018-09-29T15:00:18.351Z,1.98
2018-09-29T15:02:45.708Z,1.72
2018-09-29T15:05:13.008Z,1.37
2018-09-29T15:07:40.361Z,1.45
2018-09-29T15:10:07.738Z,1.62
2018-09-29T15:12:35.073Z,1.15
2018-09-29T15:15:02.436Z,1.87
2018-09-29T15:17:29.737Z,1.67
2018-09-29T15:19:57.067Z,1.55
2018-09-29T15:22:24.482Z,1.65
2018-09-29T15:24:52.175Z,1.20
2018-09-29T15:27:19.599Z,1.50
2018-09-29T15:29:46.997Z,3.47
2018-09-29T15:32:14.346Z,1.70
2018-09-29T15:34:41.780Z,1.42
2018-09-29T15:37:09.373Z,1.47
2018-09-29T15:39:36.645Z,1.62
2018-09-29T15:42:04.661Z,2.50
2018-09-29T15:44:32.161Z,1.77
2018-09-29T15:47:01.284Z,1.40
2018-09-29T15:49:28.639Z,1.37
2018-09-29T15:51:56.813Z,1.50
2018-09-29T15:54:24.178Z,1.50
2018-09-29T15:56:51.578Z,2.10
2018-09-29T15:59:19.028Z,1.92
2018-09-29T16:01:46.454Z,1.80
2018-09-29T16:04:13.865Z,1.87
2018-09-29T16:06:41.174Z,1.55
2018-09-29T16:09:09.555Z,1.50
2018-09-29T16:11:36.887Z,1.27
2018-09-29T16:14:04.300Z,1.70
2018-09-29T16:16:33.126Z,2.40
2018-09-29T16:19:00.505Z,2.55
2018-09-29T16:21:27.869Z,1.57
2018-09-29T16:23:55.470Z,1.98
2018-09-29T16:26:22.814Z,1.30
2018-09-29T16:28:50.833Z,1.30
2018-09-29T16:31:18.316Z,1.12
2018-09-29T16:33:45.623Z,1.32
2018-09-29T16:36:13.166Z,1.52
2018-09-29T16:38:40.448Z,1.50
2018-09-29T16:41:07.806Z,1.37
2018-09-29T16:43:35.197Z,1.50
2018-09-29T16:46:02.586Z,2.22
2018-09-29T16:48:30.966Z,1.60
2018-09-29T16:50:58.772Z,1.65
2018-09-29T16:53:27.675Z,1.35
2018-09-29T16:55:55.251Z,1.42
2018-09-29T16:58:22.696Z,1.50
2018-09-29T17:00:50.223Z,1.70
2018-09-29T17:03:17.562Z,2.33
2018-09-29T17:05:45.975Z,1.70
2018-09-29T17:08:13.438Z,2.10
2018-09-29T17:10:41.781Z,1.80
2018-09-29T17:13:09.895Z,1.95
2018-09-29T17:15:37.845Z,1.95
2018-09-29T17:18:05.314Z,1.77
2018-09-29T17:20:32.650Z,1.72
2018-09-29T17:23:00.622Z,2.50
2018-09-29T17:25:27.922Z,2.25
2018-09-29T17:27:56.028Z,1.98
2018-09-29T17:30:23.451Z,2.62
2018-09-29T17:32:50.851Z,3.10
2018-09-29T17:35:18.286Z,3.22
2018-09-29T17:37:45.619Z,2.40
2018-09-29T17:40:12.951Z,2.22
2018-09-29T17:42:40.404Z,2.58
2018-09-29T17:45:07.925Z,2.92
2018-09-29T17:47:35.299Z,2.50
2018-09-29T17:50:03.163Z,2.35
2018-09-29T17:52:30.972Z,2.22
2018-09-29T17:54:58.403Z,2.20
2018-09-29T17:57:26.009Z,2.50
2018-09-29T17:59:53.454Z,3.12
2018-09-29T18:02:20.848Z,2.80
2018-09-29T18:04:48.306Z,2.60
2018-09-29T18:07:16.267Z,3.10
2018-09-29T18:09:44.300Z,3.60
2018-09-29T18:12:11.706Z,3.27
2018-09-29T18:14:39.602Z,2.80
2018-09-29T18:17:07.463Z,2.60
2018-09-29T18:19:35.246Z,3.00
2018-09-29T18:22:02.762Z,2.00
2018-09-29T18:24:30.261Z,2.45
2018-09-29T18:29:24.560Z,2.52
2018-09-29T18:31:52.435Z,2.40
2018-09-29T18:34:20.282Z,2.35
2018-09-29T18:36:47.807Z,2.05
2018-09-29T18:39:20.275Z,2.80
2018-09-29T18:41:51.761Z,2.67
2018-09-29T18:44:19.158Z,2.40
2018-09-29T18:46:46.705Z,2.15
2018-09-29T18:49:14.126Z,2.25
2018-09-29T18:51:42.314Z,1.90
2018-09-29T18:54:09.603Z,1.80
2018-09-29T18:59:08.927Z,2.30
2018-09-29T19:01:36.353Z,2.45
2018-09-29T19:04:03.886Z,2.20
2018-09-29T19:06:33.719Z,2.33
2018-09-29T19:09:01.198Z,2.20
2018-09-29T19:11:28.679Z,1.80
2018-09-29T19:13:56.527Z,2.25
2018-09-29T19:16:23.968Z,1.92
2018-09-29T19:18:51.600Z,2.15
2018-09-29T19:21:19.083Z,2.50
2018-09-29T19:23:46.497Z,1.95
2018-09-29T19:26:14.022Z,1.85
2018-09-29T19:28:41.453Z,1.70
2018-09-29T19:31:09.000Z,2.30
2018-09-29T19:33:37.253Z,1.55
2018-09-29T19:36:05.042Z,1.65
2018-09-29T19:38:32.414Z,2.10
2018-09-29T19:41:03.917Z,1.92
2018-09-29T19:43:31.367Z,1.90
2018-09-29T19:45:58.756Z,2.55
2018-09-29T19:48:26.169Z,2.55
2018-09-29T19:50:54.102Z,2.33
2018-09-29T19:53:22.856Z,1.75
2018-09-29T19:55:54.440Z,2.20
2018-09-29T19:58:22.834Z,2.17
2018-09-29T20:00:50.407Z,1.90
2018-09-29T20:03:19.398Z,1.92
2018-09-29T20:05:47.417Z,1.62
2018-09-29T20:08:15.283Z,2.37
2018-09-29T20:10:42.683Z,1.70
2018-09-29T20:13:10.075Z,1.70
2018-09-29T20:15:38.266Z,1.80
2018-09-29T20:18:05.732Z,2.10
2018-09-29T20:20:33.882Z,2.12
2018-09-29T20:23:01.563Z,2.17
2018-09-29T20:25:29.023Z,2.00
2018-09-29T20:27:57.158Z,2.50
2018-09-29T20:30:25.009Z,2.10
2018-09-29T20:32:52.623Z,2.45
2018-09-29T20:35:20.023Z,2.05
2018-09-29T20:37:48.755Z,2.35
2018-09-29T20:40:16.498Z,1.85
2018-09-29T20:42:43.903Z,1.70
2018-09-29T20:45:11.513Z,2.17
2018-09-29T20:47:39.086Z,2.12
2018-09-29T20:50:06.585Z,2.62
2018-09-29T20:52:34.594Z,2.55
2018-09-29T20:55:03.075Z,5.70
2018-09-29T20:57:30.900Z,5.92
2018-09-29T21:00:01.385Z,6.40
2018-09-29T21:02:29.290Z,6.58
2018-09-29T21:04:56.726Z,5.78
2018-09-29T21:07:24.467Z,4.95
2018-09-29T21:09:52.348Z,4.80
2018-09-29T21:12:21.430Z,3.95
2018-09-29T21:14:48.909Z,2.92
2018-09-29T21:17:16.364Z,3.12
2018-09-29T21:19:43.879Z,4.10
2018-09-29T21:22:11.357Z,4.05
2018-09-29T21:24:39.604Z,3.62
2018-09-29T21:27:11.351Z,3.60
2018-09-29T21:29:43.861Z,3.25
2018-09-29T21:32:11.230Z,3.35
2018-09-29T21:34:38.611Z,3.67
2018-09-29T21:37:06.210Z,3.42
2018-09-29T21:39:33.856Z,3.10
2018-09-29T21:42:01.244Z,3.60
2018-09-29T21:44:29.251Z,3.62
2018-09-29T21:46:56.678Z,3.15
2018-09-29T21:49:29.503Z,4.62
2018-09-29T21:51:57.135Z,3.33
2018-09-29T21:54:24.632Z,3.50
2018-09-29T21:56:52.043Z,3.80
2018-09-29T21:59:21.043Z,3.08
2018-09-29T22:01:48.664Z,3.20
2018-09-29T22:04:17.001Z,3.85
2018-09-29T22:06:44.404Z,3.37
2018-09-29T22:09:16.319Z,3.83
2018-09-29T22:11:43.851Z,2.95
2018-09-29T22:14:11.287Z,3.35
2018-09-29T22:16:43.647Z,3.30
2018-09-29T22:19:11.039Z,3.45
2018-09-29T22:21:38.803Z,3.52
2018-09-29T22:24:06.185Z,2.95
2018-09-29T22:26:37.840Z,2.95
2018-09-29T22:29:05.899Z,2.60
2018-09-29T22:31:33.420Z,2.70
2018-09-29T22:34:05.944Z,4.05
2018-09-29T22:36:33.586Z,2.90
2018-09-29T22:39:01.355Z,2.50
2018-09-29T22:41:28.917Z,2.90
2018-09-29T22:43:56.369Z,2.83
2018-09-29T22:48:51.750Z,2.47
2018-09-29T22:51:19.217Z,3.40
2018-09-29T22:53:46.721Z,3.02
2018-09-29T22:56:14.231Z,2.67
2018-09-29T22:58:46.766Z,2.70
2018-09-29T23:01:14.346Z,2.98
2018-09-29T23:03:41.868Z,3.75
2018-09-29T23:06:10.760Z,3.35
2018-09-29T23:08:38.910Z,2.90
2018-09-29T23:11:06.398Z,3.50
2018-09-29T23:13:34.475Z,3.08
2018-09-29T23:16:01.912Z,3.75
2018-09-29T23:18:30.053Z,2.92
2018-09-29T23:20:58.553Z,3.15
2018-09-29T23:23:25.953Z,3.17
2018-09-29T23:25:53.373Z,3.08
2018-09-29T23:28:21.333Z,3.98
2018-09-29T23:30:48.799Z,6.42
2018-09-29T23:33:18.391Z,5.50
2018-09-29T23:35:45.756Z,4.12
2018-09-29T23:38:13.109Z,3.62
2018-09-29T23:40:41.237Z,4.15
2018-09-29T23:43:09.295Z,3.92
2018-09-29T23:45:36.828Z,3.92
2018-09-29T23:48:04.900Z,4.20
2018-09-29T23:50:32.406Z,4.95
2018-09-29T23:52:59.818Z,3.92
2018-09-29T23:55:27.273Z,4.50
2018-09-29T23:57:55.416Z,3.72
